createdAt,value
2019-03-29T00:00:19.965Z,98.90
2019-03-29T00:02:48.291Z,99.50
2019-03-29T00:05:17.158Z,99.30
2019-03-29T00:07:45.463Z,99.10
2019-03-29T00:10:13.792Z,98.90
2019-03-29T00:12:42.057Z,99.00
2019-03-29T00:15:10.541Z,98.80
2019-03-29T00:17:38.992Z,98.80
2019-03-29T00:20:07.636Z,99.40
2019-03-29T00:22:36.104Z,99.70
2019-03-29T00:25:04.663Z,99.60
2019-03-29T00:27:32.917Z,99.10
2019-03-29T00:30:01.388Z,98.40
2019-03-29T00:32:29.783Z,98.30
2019-03-29T00:34:58.473Z,98.30
2019-03-29T00:37:29.604Z,98.70
2019-03-29T00:39:57.948Z,99.40
2019-03-29T00:42:26.269Z,99.70
2019-03-29T00:44:54.649Z,99.70
2019-03-29T00:47:22.992Z,99.10
2019-03-29T00:49:51.333Z,99.30
2019-03-29T00:52:19.840Z,99.20
2019-03-29T00:54:48.463Z,99.50
2019-03-29T00:57:16.717Z,99.20
2019-03-29T00:59:45.237Z,99.90
2019-03-29T01:02:13.674Z,99.90
2019-03-29T01:04:42.047Z,99.90
2019-03-29T01:07:10.655Z,99.40
2019-03-29T01:09:39.063Z,98.80
2019-03-29T01:12:07.428Z,98.10
2019-03-29T01:14:35.893Z,98.40
2019-03-29T01:17:04.432Z,98.30
2019-03-29T01:19:32.728Z,98.60
2019-03-29T01:22:01.004Z,98.60
2019-03-29T01:24:29.643Z,99.10
2019-03-29T01:26:57.967Z,98.90
2019-03-29T01:29:26.605Z,98.50
2019-03-29T01:31:54.918Z,98.50
2019-03-29T01:34:23.251Z,98.50
2019-03-29T01:36:51.591Z,99.20
2019-03-29T01:39:19.843Z,99.70
2019-03-29T01:41:48.383Z,99.90
2019-03-29T01:44:16.839Z,99.60
2019-03-29T01:46:45.104Z,99.50
2019-03-29T01:49:15.885Z,99.40
2019-03-29T01:51:45.179Z,99.80
2019-03-29T01:54:13.486Z,99.80
2019-03-29T01:56:41.914Z,99.50
2019-03-29T01:59:10.196Z,99.30
2019-03-29T02:01:38.579Z,99.40
2019-03-29T02:04:08.057Z,99.10
2019-03-29T02:06:36.112Z,99.20
2019-03-29T02:09:05.378Z,99.50
2019-03-29T02:11:33.686Z,99.90
2019-03-29T02:14:02.012Z,99.70
2019-03-29T02:16:30.299Z,99.30
2019-03-29T02:18:58.899Z,99.30
2019-03-29T02:21:27.300Z,99.80
2019-03-29T02:23:56.989Z,99.40
2019-03-29T02:26:24.892Z,99.90
2019-03-29T02:28:53.507Z,99.90
2019-03-29T02:31:25.641Z,99.90
2019-03-29T02:33:51.851Z,99.90
2019-03-29T02:36:20.835Z,99.90
2019-03-29T02:38:55.746Z,99.90
2019-03-29T02:41:22.202Z,99.90
2019-03-29T02:43:50.591Z,99.90
2019-03-29T02:46:19.104Z,99.70
2019-03-29T02:48:47.535Z,99.30
2019-03-29T02:51:15.875Z,98.20
2019-03-29T02:53:44.938Z,98.20
2019-03-29T02:56:13.269Z,98.60
2019-03-29T02:58:42.207Z,98.50
2019-03-29T03:01:10.516Z,98.90
2019-03-29T03:03:38.795Z,98.80
2019-03-29T03:06:07.314Z,99.40
2019-03-29T03:08:35.746Z,99.90
2019-03-29T03:11:04.253Z,99.20
2019-03-29T03:13:32.626Z,99.20
2019-03-29T03:16:01.215Z,99.10
2019-03-29T03:18:29.615Z,99.00
2019-03-29T03:20:58.279Z,99.30
2019-03-29T03:23:26.546Z,98.90
2019-03-29T03:25:55.232Z,99.00
2019-03-29T03:28:23.830Z,99.00
2019-03-29T03:30:52.276Z,99.50
2019-03-29T03:33:20.658Z,99.40
2019-03-29T03:35:49.094Z,99.30
2019-03-29T03:38:17.430Z,99.60
2019-03-29T03:40:45.714Z,99.40
2019-03-29T03:43:13.985Z,99.40
2019-03-29T03:45:42.290Z,99.70
2019-03-29T03:48:10.796Z,99.80
2019-03-29T03:50:42.410Z,99.40
2019-03-29T03:53:10.810Z,98.80
2019-03-29T03:55:40.523Z,98.50
2019-03-29T03:58:10.073Z,98.50
2019-03-29T04:00:55.093Z,99.10
2019-03-29T04:03:23.940Z,99.00
2019-03-29T04:05:52.498Z,98.70
2019-03-29T04:08:20.934Z,98.80
2019-03-29T04:10:49.228Z,99.10
2019-03-29T04:13:17.580Z,99.20
2019-03-29T04:15:45.966Z,99.20
2019-03-29T04:18:16.104Z,98.90
2019-03-29T04:20:44.968Z,98.60
2019-03-29T04:23:13.392Z,98.70
2019-03-29T04:25:41.702Z,99.00
2019-03-29T04:28:10.193Z,99.10
2019-03-29T04:30:38.500Z,99.30
2019-03-29T04:33:10.820Z,99.40
2019-03-29T04:35:37.188Z,99.40
2019-03-29T04:38:05.727Z,99.90
2019-03-29T04:40:34.370Z,99.90
2019-03-29T04:43:04.559Z,99.90
2019-03-29T04:45:35.063Z,99.90
2019-03-29T04:48:03.682Z,99.90
2019-03-29T04:50:32.022Z,99.90
2019-03-29T04:53:00.448Z,99.90
2019-03-29T04:55:29.076Z,99.90
2019-03-29T04:57:58.437Z,99.90
2019-03-29T05:00:29.708Z,99.90
2019-03-29T05:02:58.149Z,99.90
2019-03-29T05:05:26.781Z,99.90
2019-03-29T05:07:55.156Z,99.90
2019-03-29T05:10:23.859Z,99.90
2019-03-29T05:12:52.194Z,98.70
2019-03-29T05:15:20.654Z,98.50
2019-03-29T05:17:48.880Z,98.10
2019-03-29T05:20:18.035Z,97.70
2019-03-29T05:22:47.223Z,97.30
2019-03-29T05:25:15.961Z,97.30
2019-03-29T05:27:44.331Z,96.80
2019-03-29T05:30:12.821Z,95.70
2019-03-29T05:32:41.510Z,94.40
2019-03-29T05:35:09.937Z,94.80
2019-03-29T05:37:38.492Z,94.60
2019-03-29T05:40:07.028Z,94.70
2019-03-29T05:42:35.614Z,93.70
2019-03-29T05:45:08.321Z,93.30
2019-03-29T05:47:36.809Z,92.80
2019-03-29T05:50:07.127Z,92.90
2019-03-29T05:52:35.576Z,93.00
2019-03-29T05:55:05.870Z,92.70
2019-03-29T05:57:34.442Z,92.90
2019-03-29T06:00:06.634Z,93.20
2019-03-29T06:02:35.070Z,93.30
2019-03-29T06:05:04.223Z,93.60
2019-03-29T06:07:32.661Z,93.60
2019-03-29T06:10:01.229Z,93.20
2019-03-29T06:12:31.708Z,92.50
2019-03-29T06:15:00.381Z,92.30
2019-03-29T06:17:28.828Z,90.00
2019-03-29T06:19:57.370Z,83.90
2019-03-29T06:22:25.943Z,80.30
2019-03-29T06:24:54.609Z,76.40
2019-03-29T06:27:23.113Z,72.50
2019-03-29T06:29:52.079Z,71.40
2019-03-29T06:32:20.657Z,68.10
2019-03-29T06:34:49.048Z,65.80
2019-03-29T06:37:17.832Z,65.00
2019-03-29T06:39:46.645Z,64.50
2019-03-29T06:42:15.135Z,63.80
2019-03-29T06:44:44.484Z,63.90
2019-03-29T06:47:14.860Z,62.90
2019-03-29T06:49:46.996Z,58.80
2019-03-29T06:52:15.548Z,56.50
2019-03-29T06:54:44.220Z,55.70
2019-03-29T06:57:12.832Z,54.30
2019-03-29T06:59:42.997Z,53.20
2019-03-29T07:02:15.195Z,51.30
2019-03-29T07:04:43.743Z,51.20
2019-03-29T07:07:12.369Z,49.70
2019-03-29T07:09:40.872Z,49.90
2019-03-29T07:12:09.519Z,49.30
2019-03-29T07:14:39.733Z,48.60
2019-03-29T07:17:10.281Z,47.50
2019-03-29T07:19:38.394Z,47.90
2019-03-29T07:22:06.837Z,47.00
2019-03-29T07:24:37.017Z,44.80
2019-03-29T07:27:07.065Z,43.50
2019-03-29T07:29:35.124Z,43.20
2019-03-29T07:32:03.681Z,43.80
2019-03-29T07:34:32.369Z,43.30
2019-03-29T07:37:00.836Z,44.50
2019-03-29T07:39:29.398Z,45.30
2019-03-29T07:41:58.012Z,44.40
2019-03-29T07:44:27.028Z,44.20
2019-03-29T07:46:55.464Z,42.00
2019-03-29T07:49:43.144Z,40.30
2019-03-29T07:52:08.894Z,40.90
2019-03-29T07:54:37.381Z,40.60
2019-03-29T07:57:05.673Z,39.30
2019-03-29T07:59:34.066Z,40.30
2019-03-29T08:02:02.800Z,40.70
2019-03-29T08:04:32.422Z,40.00
2019-03-29T08:07:00.815Z,39.00
2019-03-29T08:09:29.460Z,37.00
2019-03-29T08:11:57.928Z,36.60
2019-03-29T08:14:28.446Z,36.50
2019-03-29T08:16:56.937Z,37.30
2019-03-29T08:19:25.260Z,35.30
2019-03-29T08:21:53.704Z,35.10
2019-03-29T08:24:22.088Z,35.50
2019-03-29T08:26:50.704Z,36.50
2019-03-29T08:29:19.315Z,34.60
2019-03-29T08:31:47.711Z,35.20
2019-03-29T08:34:16.388Z,35.60
2019-03-29T08:36:44.896Z,35.70
2019-03-29T08:39:26.995Z,35.60
2019-03-29T08:41:43.868Z,34.20
2019-03-29T08:44:12.467Z,34.70
2019-03-29T08:46:41.084Z,34.60
2019-03-29T08:49:09.944Z,35.70
2019-03-29T08:51:41.270Z,34.50
2019-03-29T08:54:08.529Z,32.30
2019-03-29T08:56:36.848Z,29.80
2019-03-29T08:59:05.137Z,29.20
2019-03-29T09:01:33.595Z,28.50
2019-03-29T09:04:05.700Z,27.00
2019-03-29T09:06:33.061Z,26.70
2019-03-29T09:09:02.301Z,26.30
2019-03-29T09:11:30.659Z,26.20
2019-03-29T09:13:59.051Z,24.60
2019-03-29T09:16:27.445Z,24.00
2019-03-29T09:18:56.222Z,24.80
2019-03-29T09:21:24.710Z,24.80
2019-03-29T09:23:53.113Z,23.70
2019-03-29T09:26:21.466Z,25.50
2019-03-29T09:28:49.740Z,25.00
2019-03-29T09:31:18.063Z,27.50
2019-03-29T09:33:46.381Z,30.00
2019-03-29T09:36:14.872Z,35.20
2019-03-29T09:38:43.836Z,36.70
2019-03-29T09:41:12.346Z,36.60
2019-03-29T09:43:43.645Z,32.00
2019-03-29T09:46:12.013Z,35.40
2019-03-29T09:48:40.657Z,38.30
2019-03-29T09:51:08.966Z,39.80
2019-03-29T09:53:40.832Z,43.20
2019-03-29T09:56:06.685Z,43.90
2019-03-29T09:58:35.188Z,43.70
2019-03-29T10:01:03.697Z,44.50
2019-03-29T10:03:32.071Z,45.40
2019-03-29T10:06:00.464Z,47.10
2019-03-29T10:08:28.998Z,49.60
2019-03-29T10:10:57.307Z,49.20
2019-03-29T10:13:25.743Z,49.20
2019-03-29T10:15:54.223Z,48.40
2019-03-29T10:18:22.603Z,42.20
2019-03-29T10:20:51.065Z,37.10
2019-03-29T10:23:19.442Z,33.30
2019-03-29T10:25:47.714Z,30.30
2019-03-29T10:28:22.257Z,30.30
2019-03-29T10:30:52.301Z,29.90
2019-03-29T10:33:20.186Z,30.20
2019-03-29T10:35:52.926Z,27.20
2019-03-29T10:38:19.041Z,27.00
2019-03-29T10:40:48.350Z,28.20
2019-03-29T10:43:16.848Z,30.40
2019-03-29T10:45:45.368Z,33.00
2019-03-29T10:48:13.718Z,36.50
2019-03-29T10:50:43.785Z,37.70
2019-03-29T10:53:12.955Z,40.10
2019-03-29T10:55:41.445Z,40.90
2019-03-29T10:58:10.184Z,42.10
2019-03-29T11:00:39.864Z,42.80
2019-03-29T11:03:08.378Z,41.50
2019-03-29T11:05:36.851Z,40.50
2019-03-29T11:08:05.202Z,38.50
2019-03-29T11:10:38.519Z,36.30
2019-03-29T11:13:13.410Z,37.30
2019-03-29T11:15:36.260Z,39.80
2019-03-29T11:18:05.345Z,41.60
2019-03-29T11:20:33.729Z,43.70
2019-03-29T11:23:02.388Z,40.90
2019-03-29T11:25:30.841Z,36.70
2019-03-29T11:28:00.988Z,33.40
2019-03-29T11:30:41.551Z,32.10
2019-03-29T11:32:58.599Z,29.50
2019-03-29T11:35:27.087Z,30.30
2019-03-29T11:37:55.728Z,29.80
2019-03-29T11:40:24.198Z,29.50
2019-03-29T11:42:52.635Z,29.40
2019-03-29T11:45:20.972Z,31.10
2019-03-29T11:47:49.315Z,32.70
2019-03-29T11:50:17.609Z,36.20
2019-03-29T11:52:49.166Z,37.60
2019-03-29T11:55:23.261Z,39.80
2019-03-29T11:57:55.596Z,39.80
2019-03-29T12:00:28.367Z,39.10
2019-03-29T12:02:56.754Z,38.40
2019-03-29T12:05:25.060Z,39.60
2019-03-29T12:07:53.558Z,37.90
2019-03-29T12:10:22.018Z,36.80
2019-03-29T12:12:50.303Z,37.70
2019-03-29T12:15:18.948Z,39.40
2019-03-29T12:17:47.567Z,39.90
2019-03-29T12:20:15.987Z,40.70
2019-03-29T12:22:44.569Z,40.30
2019-03-29T12:25:13.650Z,40.50
2019-03-29T12:27:42.072Z,39.40
2019-03-29T12:30:10.529Z,40.90
2019-03-29T12:32:39.007Z,42.60
2019-03-29T12:35:09.970Z,42.70
2019-03-29T12:37:37.750Z,44.10
2019-03-29T12:40:07.864Z,44.40
2019-03-29T12:42:35.500Z,45.00
2019-03-29T12:45:05.509Z,43.90
2019-03-29T12:47:33.178Z,42.20
2019-03-29T12:50:01.523Z,42.40
2019-03-29T12:52:30.014Z,41.80
2019-03-29T12:54:58.404Z,44.20
2019-03-29T12:57:26.863Z,42.70
2019-03-29T12:59:55.342Z,46.50
2019-03-29T13:02:23.748Z,44.90
2019-03-29T13:04:52.100Z,47.90
2019-03-29T13:07:20.737Z,46.10
2019-03-29T13:09:49.199Z,47.20
2019-03-29T13:12:17.882Z,48.20
2019-03-29T13:14:46.175Z,46.50
2019-03-29T13:17:14.703Z,47.70
2019-03-29T13:19:43.239Z,46.20
2019-03-29T13:22:12.204Z,48.10
2019-03-29T13:24:40.466Z,47.60
2019-03-29T13:27:08.764Z,48.30
2019-03-29T13:29:37.385Z,50.10
2019-03-29T13:32:06.134Z,48.60
2019-03-29T13:34:34.612Z,47.90
2019-03-29T13:37:03.454Z,49.20
2019-03-29T13:39:31.892Z,49.50
2019-03-29T13:42:00.695Z,50.30
2019-03-29T13:44:29.426Z,50.50
2019-03-29T13:46:57.727Z,49.20
2019-03-29T13:49:26.008Z,48.90
2019-03-29T13:51:54.678Z,51.10
2019-03-29T13:54:23.185Z,48.90
2019-03-29T13:56:51.718Z,51.10
2019-03-29T13:59:20.175Z,51.90
2019-03-29T14:01:48.775Z,49.20
2019-03-29T14:04:17.140Z,49.70
2019-03-29T14:06:45.490Z,51.70
2019-03-29T14:09:13.834Z,52.90
2019-03-29T14:11:42.237Z,52.00
2019-03-29T14:14:10.724Z,52.40
2019-03-29T14:16:39.188Z,52.50
2019-03-29T14:19:07.853Z,50.90
2019-03-29T14:21:36.395Z,51.50
2019-03-29T14:24:05.068Z,50.90
2019-03-29T14:26:33.524Z,51.70
2019-03-29T14:29:02.005Z,52.00
2019-03-29T14:31:30.561Z,52.30
2019-03-29T14:33:59.019Z,52.70
2019-03-29T14:36:27.560Z,51.30
2019-03-29T14:38:55.816Z,51.50
2019-03-29T14:41:24.088Z,51.70
2019-03-29T14:43:52.541Z,52.80
2019-03-29T14:46:21.037Z,53.10
2019-03-29T14:48:49.333Z,53.70
2019-03-29T14:51:19.539Z,53.20
2019-03-29T14:53:47.334Z,54.20
2019-03-29T14:56:15.866Z,52.00
2019-03-29T14:58:44.322Z,53.10
2019-03-29T15:01:12.759Z,52.60
2019-03-29T15:03:41.151Z,53.80
2019-03-29T15:06:09.695Z,53.80
2019-03-29T15:08:38.173Z,53.50
2019-03-29T15:11:21.281Z,53.30
2019-03-29T15:13:38.264Z,53.80
2019-03-29T15:16:06.520Z,53.80
2019-03-29T15:18:35.015Z,54.60
2019-03-29T15:21:03.389Z,53.70
2019-03-29T15:23:31.918Z,53.90
2019-03-29T15:26:00.237Z,54.60
2019-03-29T15:28:28.584Z,56.10
2019-03-29T15:30:56.849Z,55.90
2019-03-29T15:33:25.391Z,57.20
2019-03-29T15:35:53.803Z,56.70
2019-03-29T15:38:22.249Z,56.80
2019-03-29T15:40:50.721Z,57.40
2019-03-29T15:43:19.423Z,57.60
2019-03-29T15:45:47.948Z,58.60
2019-03-29T15:48:16.586Z,57.60
2019-03-29T15:50:45.059Z,57.70
2019-03-29T15:53:13.558Z,58.60
2019-03-29T15:55:42.032Z,58.30
2019-03-29T15:58:10.389Z,58.40
2019-03-29T16:00:38.878Z,58.90
2019-03-29T16:03:07.675Z,58.80
2019-03-29T16:05:36.094Z,58.90
2019-03-29T16:08:04.583Z,60.20
2019-03-29T16:10:32.967Z,60.00
2019-03-29T16:13:14.811Z,59.90
2019-03-29T16:15:43.395Z,61.30
2019-03-29T16:18:11.735Z,60.50
2019-03-29T16:20:40.897Z,60.70
2019-03-29T16:23:09.319Z,63.30
2019-03-29T16:25:37.651Z,64.50
2019-03-29T16:28:06.123Z,62.60
2019-03-29T16:30:34.438Z,62.40
2019-03-29T16:33:02.798Z,61.50
2019-03-29T16:35:31.393Z,61.90
2019-03-29T16:37:59.801Z,62.40
2019-03-29T16:40:30.878Z,62.70
2019-03-29T16:42:58.546Z,63.10
2019-03-29T16:45:27.313Z,65.40
2019-03-29T16:47:55.940Z,65.50
2019-03-29T16:50:24.562Z,65.70
2019-03-29T16:52:53.227Z,66.50
2019-03-29T16:55:23.100Z,68.20
2019-03-29T16:57:51.426Z,69.40
2019-03-29T17:00:19.968Z,68.50
2019-03-29T17:02:52.104Z,70.90
2019-03-29T17:05:24.659Z,69.50
2019-03-29T17:07:53.167Z,69.60
2019-03-29T17:10:21.549Z,70.30
2019-03-29T17:12:53.126Z,70.80
2019-03-29T17:15:22.199Z,71.80
2019-03-29T17:17:54.060Z,72.80
2019-03-29T17:20:22.605Z,72.70
2019-03-29T17:22:52.451Z,72.80
2019-03-29T17:25:22.513Z,73.60
2019-03-29T17:27:53.843Z,76.90
2019-03-29T17:30:37.506Z,74.50
2019-03-29T17:33:05.912Z,75.10
2019-03-29T17:35:39.940Z,75.10
2019-03-29T17:38:08.522Z,76.20
2019-03-29T17:40:37.014Z,76.80
2019-03-29T17:43:05.652Z,77.10
2019-03-29T17:45:34.472Z,77.60
2019-03-29T17:48:03.153Z,78.00
2019-03-29T17:50:43.696Z,78.10
2019-03-29T17:53:12.056Z,78.40
2019-03-29T17:55:40.472Z,79.50
2019-03-29T17:58:09.004Z,79.70
2019-03-29T18:00:55.567Z,79.80
2019-03-29T18:03:24.284Z,80.00
2019-03-29T18:05:55.206Z,80.20
2019-03-29T18:08:26.850Z,80.10
2019-03-29T18:10:55.358Z,80.10
2019-03-29T18:13:33.476Z,80.40
2019-03-29T18:16:01.969Z,81.90
2019-03-29T18:18:30.472Z,81.50
2019-03-29T18:20:58.909Z,82.40
2019-03-29T18:23:27.392Z,82.40
2019-03-29T18:25:55.808Z,82.20
2019-03-29T18:28:24.234Z,82.50
2019-03-29T18:30:52.683Z,82.80
2019-03-29T18:33:26.562Z,83.00
2019-03-29T18:35:55.966Z,83.10
2019-03-29T18:38:24.619Z,83.30
2019-03-29T18:41:02.007Z,83.50
2019-03-29T18:43:30.420Z,83.60
2019-03-29T18:45:58.759Z,83.50
2019-03-29T18:48:29.163Z,83.40
2019-03-29T18:50:57.588Z,83.50
2019-03-29T18:53:27.076Z,83.40
2019-03-29T18:55:55.266Z,83.80
2019-03-29T18:58:28.402Z,83.80
2019-03-29T19:00:57.048Z,83.90
2019-03-29T19:03:25.369Z,83.70
2019-03-29T19:05:53.914Z,84.00
2019-03-29T19:08:22.258Z,83.90
2019-03-29T19:10:50.580Z,83.80
2019-03-29T19:13:19.080Z,82.90
2019-03-29T19:15:47.680Z,83.50
2019-03-29T19:18:17.676Z,84.20
2019-03-29T19:20:46.532Z,85.00
2019-03-29T19:23:16.527Z,85.70
2019-03-29T19:25:45.192Z,86.20
2019-03-29T19:28:20.439Z,86.80
2019-03-29T19:30:51.512Z,87.30
2019-03-29T19:33:19.973Z,87.60
2019-03-29T19:35:48.428Z,87.10
2019-03-29T19:38:16.784Z,87.20
2019-03-29T19:40:45.297Z,87.90
2019-03-29T19:43:13.730Z,88.80
2019-03-29T19:45:42.132Z,89.10
2019-03-29T19:48:10.775Z,88.80
2019-03-29T19:50:39.316Z,88.20
2019-03-29T19:53:10.574Z,88.00
2019-03-29T19:55:39.120Z,88.10
2019-03-29T19:58:07.499Z,89.00
2019-03-29T20:00:38.309Z,89.10
2019-03-29T20:03:06.936Z,88.70
2019-03-29T20:05:35.451Z,88.10
2019-03-29T20:08:03.993Z,87.80
2019-03-29T20:10:34.108Z,88.50
2019-03-29T20:13:02.535Z,89.10
2019-03-29T20:15:30.975Z,89.70
2019-03-29T20:17:59.417Z,89.70
2019-03-29T20:20:27.957Z,89.70
2019-03-29T20:22:56.605Z,89.30
2019-03-29T20:25:25.057Z,89.80
2019-03-29T20:27:53.862Z,89.50
2019-03-29T20:30:22.197Z,88.80
2019-03-29T20:32:50.782Z,89.60
2019-03-29T20:35:19.100Z,88.90
2019-03-29T20:37:47.516Z,90.30
2019-03-29T20:40:17.525Z,90.30
2019-03-29T20:42:45.334Z,90.40
2019-03-29T20:45:13.869Z,90.50
2019-03-29T20:47:42.763Z,90.30
2019-03-29T20:50:11.352Z,90.40
2019-03-29T20:52:40.014Z,90.70
2019-03-29T20:55:08.564Z,90.80
2019-03-29T20:57:37.078Z,90.80
2019-03-29T21:00:09.392Z,91.00
2019-03-29T21:02:38.536Z,91.50
2019-03-29T21:05:07.529Z,91.90
2019-03-29T21:07:35.853Z,92.30
2019-03-29T21:10:06.600Z,92.10
2019-03-29T21:12:38.963Z,92.30
2019-03-29T21:15:07.377Z,92.50
2019-03-29T21:17:36.873Z,92.60
2019-03-29T21:20:08.453Z,92.60
2019-03-29T21:22:36.958Z,92.90
2019-03-29T21:25:06.773Z,92.90
2019-03-29T21:27:35.404Z,92.60
2019-03-29T21:30:06.948Z,92.70
2019-03-29T21:32:35.399Z,92.70
2019-03-29T21:35:05.300Z,92.50
2019-03-29T21:37:33.794Z,92.40
2019-03-29T21:40:02.400Z,92.60
2019-03-29T21:42:31.268Z,92.80
2019-03-29T21:44:59.742Z,92.90
2019-03-29T21:47:28.422Z,92.70
2019-03-29T21:49:56.847Z,92.90
2019-03-29T21:52:25.261Z,92.90
2019-03-29T21:54:53.620Z,93.00
2019-03-29T21:57:22.199Z,93.10
2019-03-29T21:59:50.695Z,93.50
2019-03-29T22:02:21.461Z,93.50
2019-03-29T22:04:49.749Z,93.00
2019-03-29T22:07:19.298Z,93.00
2019-03-29T22:09:47.643Z,93.70
2019-03-29T22:12:16.113Z,93.60
2019-03-29T22:14:44.517Z,93.80
2019-03-29T22:17:12.998Z,93.90
2019-03-29T22:19:41.464Z,93.40
2019-03-29T22:22:09.896Z,93.60
2019-03-29T22:24:38.265Z,93.60
2019-03-29T22:27:06.565Z,93.30
2019-03-29T22:29:34.932Z,93.40
2019-03-29T22:32:04.540Z,93.50
2019-03-29T22:34:33.188Z,93.60
2019-03-29T22:37:01.507Z,93.50
2019-03-29T22:39:29.898Z,93.80
2019-03-29T22:41:58.266Z,93.80
2019-03-29T22:44:26.548Z,94.00
2019-03-29T22:46:55.106Z,94.00
2019-03-29T22:49:23.579Z,94.10
2019-03-29T22:51:51.902Z,94.20
2019-03-29T22:54:20.271Z,94.20
2019-03-29T22:56:48.578Z,94.60
2019-03-29T22:59:17.006Z,94.50
2019-03-29T23:01:45.619Z,94.10
2019-03-29T23:04:14.235Z,94.00
2019-03-29T23:06:42.876Z,94.10
2019-03-29T23:09:11.929Z,94.50
2019-03-29T23:11:40.695Z,94.90
2019-03-29T23:14:08.990Z,95.10
2019-03-29T23:16:37.862Z,94.40
2019-03-29T23:19:07.200Z,94.40
2019-03-29T23:21:35.747Z,94.10
2019-03-29T23:24:04.237Z,94.40
2019-03-29T23:26:32.536Z,94.60
2019-03-29T23:29:00.916Z,95.30
2019-03-29T23:31:29.358Z,95.50
2019-03-29T23:33:58.663Z,95.40
2019-03-29T23:36:27.098Z,95.30
2019-03-29T23:38:55.433Z,95.20
2019-03-29T23:41:23.962Z,95.20
2019-03-29T23:43:52.483Z,95.00
2019-03-29T23:46:20.900Z,95.50
2019-03-29T23:48:49.411Z,95.60
2019-03-29T23:51:18.117Z,95.50
2019-03-29T23:53:46.465Z,95.90
2019-03-29T23:56:15.169Z,95.80
2019-03-29T23:58:45.439Z,95.50
